createdAt,value
2018-12-31T00:05:46.175Z,8.93
2018-12-31T00:08:12.331Z,8.95
2018-12-31T00:10:38.491Z,8.78
2018-12-31T00:13:04.796Z,8.79
2018-12-31T00:15:30.956Z,8.83
2018-12-31T00:17:57.109Z,8.84
2018-12-31T00:20:23.296Z,8.81
2018-12-31T00:22:49.556Z,8.73
2018-12-31T00:25:15.716Z,8.65
2018-12-31T00:27:41.903Z,8.41
2018-12-31T00:30:08.150Z,8.61
2018-12-31T00:32:34.304Z,8.40
2018-12-31T00:35:00.709Z,8.27
2018-12-31T00:37:26.862Z,8.51
2018-12-31T00:39:53.025Z,8.49
2018-12-31T00:42:19.218Z,8.36
2018-12-31T00:44:45.383Z,8.15
2018-12-31T00:47:11.526Z,8.13
2018-12-31T00:49:37.710Z,8.09
2018-12-31T00:52:03.872Z,8.26
2018-12-31T00:54:30.132Z,8.18
2018-12-31T00:56:56.326Z,8.20
2018-12-31T00:59:22.484Z,8.21
2018-12-31T01:01:48.631Z,8.23
2018-12-31T01:04:14.831Z,8.11
2018-12-31T01:06:46.847Z,8.02
2018-12-31T01:09:12.991Z,7.79
2018-12-31T01:11:39.182Z,7.86
2018-12-31T01:14:05.348Z,7.92
2018-12-31T01:16:31.498Z,7.95
2018-12-31T01:18:57.693Z,7.90
2018-12-31T01:21:23.851Z,7.69
2018-12-31T01:23:50.054Z,7.93
2018-12-31T01:26:16.344Z,7.84
2018-12-31T01:28:42.496Z,8.15
2018-12-31T01:31:08.643Z,7.81
2018-12-31T01:33:34.823Z,7.99
2018-12-31T01:36:01.081Z,7.97
2018-12-31T01:38:27.338Z,7.96
2018-12-31T01:43:25.787Z,7.95
2018-12-31T01:45:51.935Z,7.89
2018-12-31T01:48:18.119Z,7.93
2018-12-31T01:50:44.278Z,8.01
2018-12-31T01:53:10.437Z,7.88
2018-12-31T01:55:36.620Z,7.93
2018-12-31T02:00:50.458Z,7.68
2018-12-31T02:03:16.615Z,7.69
2018-12-31T02:05:42.764Z,7.65
2018-12-31T02:08:09.023Z,7.84
2018-12-31T02:13:42.643Z,7.70
2018-12-31T02:16:08.895Z,7.91
2018-12-31T02:18:35.054Z,7.87
2018-12-31T02:21:01.246Z,7.43
2018-12-31T02:23:27.532Z,7.54
2018-12-31T02:25:53.651Z,7.34
2018-12-31T02:28:19.836Z,7.44
2018-12-31T02:30:45.995Z,7.79
2018-12-31T02:33:12.142Z,7.84
2018-12-31T02:35:38.332Z,7.52
2018-12-31T02:38:04.493Z,7.44
2018-12-31T02:40:30.648Z,7.83
2018-12-31T02:42:56.843Z,7.92
2018-12-31T02:45:23.000Z,8.02
2018-12-31T02:47:49.164Z,8.26
2018-12-31T02:50:15.445Z,8.40
2018-12-31T02:52:41.600Z,8.39
2018-12-31T02:55:07.770Z,8.24
2018-12-31T02:57:33.947Z,8.30
2018-12-31T03:00:00.279Z,7.80
2018-12-31T03:02:28.147Z,8.23
2018-12-31T03:04:54.347Z,8.23
2018-12-31T03:07:20.500Z,8.17
2018-12-31T03:09:46.657Z,8.28
2018-12-31T03:12:12.843Z,8.20
2018-12-31T03:14:39.000Z,8.30
2018-12-31T03:17:05.153Z,8.13
2018-12-31T03:19:31.345Z,8.19
2018-12-31T03:21:57.504Z,8.22
2018-12-31T03:24:23.659Z,8.34
2018-12-31T03:26:49.901Z,8.00
2018-12-31T03:29:16.053Z,8.26
2018-12-31T03:31:42.202Z,8.35
2018-12-31T03:34:08.491Z,8.42
2018-12-31T03:36:34.649Z,8.28
2018-12-31T03:39:00.805Z,8.19
2018-12-31T03:41:26.996Z,8.28
2018-12-31T03:43:53.156Z,8.31
2018-12-31T03:46:19.306Z,8.41
2018-12-31T03:48:45.486Z,8.39
2018-12-31T03:51:11.751Z,8.31
2018-12-31T03:53:37.903Z,7.95
2018-12-31T03:56:04.195Z,8.14
2018-12-31T03:58:30.453Z,7.99
2018-12-31T04:00:56.610Z,8.02
2018-12-31T04:03:22.797Z,8.05
2018-12-31T04:05:48.953Z,7.94
2018-12-31T04:08:15.103Z,8.04
2018-12-31T04:10:41.295Z,7.80
2018-12-31T04:13:07.453Z,8.03
2018-12-31T04:15:33.606Z,7.71
2018-12-31T04:17:59.797Z,7.82
2018-12-31T04:20:25.951Z,7.76
2018-12-31T04:22:52.102Z,7.76
2018-12-31T04:25:18.289Z,8.01
2018-12-31T04:27:57.089Z,8.38
2018-12-31T04:30:23.305Z,8.47
2018-12-31T04:32:49.526Z,8.52
2018-12-31T04:35:15.686Z,8.61
2018-12-31T04:37:41.876Z,8.48
2018-12-31T04:40:08.025Z,8.10
2018-12-31T04:42:34.392Z,7.96
2018-12-31T04:45:00.583Z,6.74
2018-12-31T04:47:26.742Z,6.36
2018-12-31T04:49:53.098Z,6.68
2018-12-31T04:52:19.450Z,6.84
2018-12-31T04:54:45.746Z,7.19
2018-12-31T04:57:11.903Z,6.87
2018-12-31T04:59:38.097Z,6.96
2018-12-31T05:02:04.240Z,6.84
2018-12-31T05:04:30.385Z,6.84
2018-12-31T05:06:56.574Z,6.89
2018-12-31T05:09:22.734Z,7.14
2018-12-31T05:11:49.937Z,7.40
2018-12-31T05:16:56.024Z,7.53
2018-12-31T05:19:22.180Z,7.39
2018-12-31T05:21:48.444Z,7.36
2018-12-31T05:24:14.646Z,7.39
2018-12-31T05:26:40.794Z,7.49
2018-12-31T05:29:07.049Z,7.58
2018-12-31T05:31:33.234Z,7.67
2018-12-31T05:33:59.387Z,7.68
2018-12-31T05:36:25.545Z,7.55
2018-12-31T05:38:51.888Z,7.57
2018-12-31T05:41:18.038Z,7.41
2018-12-31T05:43:44.199Z,7.51
2018-12-31T05:46:10.400Z,7.46
2018-12-31T05:48:36.557Z,7.57
2018-12-31T05:51:02.839Z,7.72
2018-12-31T05:53:29.012Z,7.75
2018-12-31T05:55:55.168Z,7.73
2018-12-31T05:58:21.329Z,7.95
2018-12-31T06:00:47.527Z,7.99
2018-12-31T06:03:13.678Z,8.10
2018-12-31T06:05:39.831Z,8.08
2018-12-31T06:08:06.008Z,8.16
2018-12-31T06:10:32.172Z,8.22
2018-12-31T06:12:58.323Z,8.22
2018-12-31T06:15:24.505Z,8.31
2018-12-31T06:17:50.659Z,8.14
2018-12-31T06:20:16.816Z,8.21
2018-12-31T06:22:43.025Z,8.13
2018-12-31T06:25:09.293Z,8.19
2018-12-31T06:27:35.449Z,8.26
2018-12-31T06:30:02.267Z,8.18
2018-12-31T06:32:29.963Z,8.16
2018-12-31T06:34:56.144Z,7.94
2018-12-31T06:37:22.339Z,7.92
2018-12-31T06:39:48.490Z,8.08
2018-12-31T06:42:14.650Z,8.31
2018-12-31T06:44:40.897Z,8.51
2018-12-31T06:47:07.061Z,8.53
2018-12-31T06:49:33.217Z,8.61
2018-12-31T06:51:59.408Z,8.80
2018-12-31T06:54:25.667Z,8.86
2018-12-31T06:56:51.820Z,8.81
2018-12-31T06:59:18.004Z,8.59
2018-12-31T07:01:44.150Z,8.52
2018-12-31T07:04:10.409Z,8.76
2018-12-31T07:06:36.599Z,9.22
2018-12-31T07:10:00.044Z,9.47
2018-12-31T07:12:26.232Z,9.55
2018-12-31T07:14:52.392Z,9.84
2018-12-31T07:17:18.546Z,9.82
2018-12-31T07:19:44.733Z,9.91
2018-12-31T07:22:10.996Z,10.01
2018-12-31T07:24:37.151Z,9.72
2018-12-31T07:27:03.350Z,9.94
2018-12-31T07:29:29.507Z,9.87
2018-12-31T07:31:55.725Z,10.00
2018-12-31T07:34:22.010Z,10.19
2018-12-31T07:36:48.170Z,9.84
2018-12-31T07:39:14.333Z,10.01
2018-12-31T07:41:40.525Z,9.92
2018-12-31T07:44:06.679Z,10.19
2018-12-31T07:46:32.832Z,9.89
2018-12-31T07:48:59.031Z,10.42
2018-12-31T07:51:25.189Z,10.75
2018-12-31T07:53:51.343Z,10.95
2018-12-31T07:56:17.528Z,10.80
2018-12-31T07:58:43.689Z,10.82
2018-12-31T08:01:09.841Z,10.79
2018-12-31T08:03:36.032Z,10.71
2018-12-31T08:06:02.374Z,10.79
2018-12-31T08:08:28.676Z,11.19
2018-12-31T08:10:54.868Z,11.32
2018-12-31T08:13:21.156Z,11.53
2018-12-31T08:18:39.827Z,11.96
2018-12-31T08:21:06.117Z,12.12
2018-12-31T08:23:32.264Z,12.41
2018-12-31T08:25:58.573Z,12.84
2018-12-31T08:28:24.742Z,12.63
2018-12-31T08:30:51.063Z,11.30
2018-12-31T08:33:17.316Z,11.17
2018-12-31T08:35:43.497Z,10.85
2018-12-31T08:38:09.644Z,11.07
2018-12-31T08:40:35.819Z,10.36
2018-12-31T08:43:02.126Z,9.85
2018-12-31T08:45:28.284Z,10.11
2018-12-31T08:47:54.582Z,10.73
2018-12-31T08:50:20.736Z,10.45
2018-12-31T08:52:46.887Z,10.83
2018-12-31T08:55:13.186Z,10.78
2018-12-31T08:57:39.323Z,10.73
2018-12-31T09:00:46.925Z,10.91
2018-12-31T09:03:13.079Z,10.86
2018-12-31T09:05:39.231Z,11.10
2018-12-31T09:08:05.428Z,11.30
2018-12-31T09:10:31.597Z,11.18
2018-12-31T09:13:17.757Z,11.39
2018-12-31T09:15:43.985Z,11.98
2018-12-31T09:18:10.147Z,12.48
2018-12-31T09:20:36.452Z,12.52
2018-12-31T09:23:02.735Z,12.91
2018-12-31T09:25:28.895Z,13.18
2018-12-31T09:27:55.102Z,12.28
2018-12-31T09:30:21.359Z,12.34
2018-12-31T09:32:47.518Z,11.72
2018-12-31T09:35:13.773Z,11.60
2018-12-31T09:37:39.933Z,11.91
2018-12-31T09:40:06.098Z,11.32
2018-12-31T09:42:32.288Z,10.56
2018-12-31T09:44:58.440Z,10.17
2018-12-31T09:47:24.592Z,10.10
2018-12-31T09:49:50.788Z,10.19
2018-12-31T09:52:16.944Z,9.92
2018-12-31T09:54:42.995Z,9.59
2018-12-31T09:57:09.202Z,10.37
2018-12-31T09:59:35.356Z,11.16
2018-12-31T10:02:01.511Z,11.14
2018-12-31T10:04:27.688Z,10.88
2018-12-31T10:06:53.841Z,10.61
2018-12-31T10:09:20.100Z,10.37
2018-12-31T10:11:46.419Z,10.39
2018-12-31T10:14:12.578Z,9.73
2018-12-31T10:16:38.855Z,9.49
2018-12-31T10:19:05.036Z,9.87
2018-12-31T10:21:31.213Z,9.81
2018-12-31T10:23:57.381Z,10.52
2018-12-31T10:26:23.574Z,10.88
2018-12-31T10:28:49.736Z,10.57
2018-12-31T10:31:15.903Z,10.31
2018-12-31T10:33:42.205Z,10.61
2018-12-31T10:36:09.316Z,10.02
2018-12-31T10:38:35.603Z,10.35
2018-12-31T10:41:01.774Z,11.02
2018-12-31T10:43:27.938Z,10.15
2018-12-31T10:45:54.099Z,10.54
2018-12-31T10:48:20.298Z,11.20
2018-12-31T10:50:46.457Z,10.63
2018-12-31T10:53:12.615Z,10.56
2018-12-31T10:55:38.930Z,10.01
2018-12-31T10:58:05.086Z,10.53
2018-12-31T11:00:31.251Z,11.22
2018-12-31T11:02:57.442Z,11.07
2018-12-31T11:05:23.699Z,10.43
2018-12-31T11:07:49.862Z,9.84
2018-12-31T11:10:16.193Z,9.76
2018-12-31T11:12:42.489Z,9.88
2018-12-31T11:15:08.990Z,11.09
2018-12-31T11:17:35.203Z,11.35
2018-12-31T11:20:01.362Z,11.57
2018-12-31T11:22:27.624Z,10.76
2018-12-31T11:24:53.808Z,10.55
2018-12-31T11:27:19.968Z,10.81
2018-12-31T11:29:46.127Z,10.86
2018-12-31T11:32:12.315Z,10.74
2018-12-31T11:34:38.476Z,10.54
2018-12-31T11:37:04.843Z,10.17
2018-12-31T11:39:31.041Z,10.05
2018-12-31T11:41:58.135Z,10.12
2018-12-31T11:44:25.252Z,10.70
2018-12-31T11:46:51.461Z,11.11
2018-12-31T11:49:17.732Z,11.72
2018-12-31T11:51:43.892Z,11.24
2018-12-31T11:54:10.083Z,11.62
2018-12-31T11:56:36.233Z,12.17
2018-12-31T11:59:02.495Z,12.43
2018-12-31T12:01:28.802Z,12.17
2018-12-31T12:03:54.963Z,12.58
2018-12-31T12:06:21.239Z,12.26
2018-12-31T12:08:47.539Z,12.64
2018-12-31T12:11:13.704Z,13.07
2018-12-31T12:13:39.864Z,13.05
2018-12-31T12:16:06.204Z,12.36
2018-12-31T12:18:32.356Z,12.13
2018-12-31T12:20:58.523Z,12.50
2018-12-31T12:23:24.763Z,12.78
2018-12-31T12:25:52.835Z,12.76
2018-12-31T12:28:19.008Z,12.21
2018-12-31T12:30:45.291Z,12.55
2018-12-31T12:33:11.452Z,12.78
2018-12-31T12:35:37.715Z,12.81
2018-12-31T12:38:04.021Z,12.70
2018-12-31T12:40:32.078Z,12.77
2018-12-31T12:42:58.236Z,13.01
2018-12-31T12:45:24.702Z,12.05
2018-12-31T12:47:50.864Z,12.16
2018-12-31T12:50:17.029Z,12.61
2018-12-31T12:52:43.333Z,12.79
2018-12-31T12:55:11.394Z,12.79
2018-12-31T12:57:37.555Z,13.03
2018-12-31T13:00:45.170Z,13.06
2018-12-31T13:03:11.337Z,13.00
2018-12-31T13:05:37.502Z,12.44
2018-12-31T13:08:03.796Z,12.50
2018-12-31T13:10:29.967Z,12.56
2018-12-31T13:12:56.134Z,12.52
2018-12-31T13:15:29.684Z,12.79
2018-12-31T13:17:55.839Z,12.50
2018-12-31T13:20:21.998Z,12.38
2018-12-31T13:22:48.292Z,12.23
2018-12-31T13:25:14.459Z,12.10
2018-12-31T13:27:40.621Z,12.44
2018-12-31T13:30:07.115Z,12.24
2018-12-31T13:32:33.382Z,12.47
2018-12-31T13:34:59.530Z,12.86
2018-12-31T13:37:25.723Z,12.93
2018-12-31T13:39:51.890Z,12.38
2018-12-31T13:42:18.051Z,12.67
2018-12-31T13:44:44.321Z,12.33
2018-12-31T13:47:10.488Z,11.47
2018-12-31T13:49:36.792Z,11.34
2018-12-31T13:52:03.104Z,11.40
2018-12-31T13:54:29.270Z,11.99
2018-12-31T13:56:55.440Z,12.24
2018-12-31T13:59:21.764Z,12.17
2018-12-31T14:01:48.272Z,12.39
2018-12-31T14:04:14.582Z,12.31
2018-12-31T14:06:40.783Z,11.84
2018-12-31T14:09:06.960Z,11.44
2018-12-31T14:11:53.017Z,11.67
2018-12-31T14:14:19.172Z,11.70
2018-12-31T14:16:45.339Z,11.62
2018-12-31T14:19:11.539Z,11.82
2018-12-31T14:21:37.850Z,11.87
2018-12-31T14:24:04.188Z,11.75
2018-12-31T14:26:52.019Z,11.63
2018-12-31T14:29:18.180Z,11.19
2018-12-31T14:31:44.432Z,11.15
2018-12-31T14:34:10.817Z,10.85
2018-12-31T14:36:37.008Z,10.69
2018-12-31T14:39:44.707Z,10.64
2018-12-31T14:42:10.966Z,10.52
2018-12-31T14:44:37.315Z,10.22
2018-12-31T14:47:03.517Z,10.25
2018-12-31T14:49:29.679Z,10.24
2018-12-31T14:51:55.833Z,10.10
2018-12-31T14:54:22.048Z,9.89
2018-12-31T14:56:48.203Z,9.91
2018-12-31T14:59:36.045Z,9.88
2018-12-31T15:02:02.233Z,9.72
2018-12-31T15:04:28.383Z,9.58
2018-12-31T15:06:54.580Z,9.27
2018-12-31T15:09:20.735Z,9.02
2018-12-31T15:11:46.885Z,8.78
2018-12-31T15:14:13.178Z,8.26
2018-12-31T15:16:39.447Z,8.02
2018-12-31T15:19:05.599Z,8.00
2018-12-31T15:21:31.785Z,7.87
2018-12-31T15:23:58.057Z,7.76
2018-12-31T15:26:24.317Z,7.63
2018-12-31T15:28:50.500Z,7.58
2018-12-31T15:31:16.652Z,7.82
2018-12-31T15:33:42.805Z,8.04
2018-12-31T15:36:08.988Z,8.16
2018-12-31T15:38:35.138Z,8.18
2018-12-31T15:41:03.322Z,8.21
2018-12-31T15:43:29.544Z,8.36
2018-12-31T15:45:55.704Z,8.39
2018-12-31T15:48:21.859Z,8.39
2018-12-31T15:50:48.054Z,8.40
2018-12-31T15:53:14.314Z,8.31
2018-12-31T15:55:40.471Z,8.21
2018-12-31T15:58:06.659Z,7.96
2018-12-31T16:00:32.811Z,7.94
2018-12-31T16:02:58.967Z,7.96
2018-12-31T16:05:25.161Z,7.90
2018-12-31T16:07:51.219Z,7.90
2018-12-31T16:10:17.475Z,7.74
2018-12-31T16:12:45.675Z,7.48
2018-12-31T16:15:11.833Z,7.37
2018-12-31T16:17:38.034Z,7.30
2018-12-31T16:20:45.625Z,7.22
2018-12-31T16:23:11.793Z,7.19
2018-12-31T16:25:38.071Z,7.30
2018-12-31T16:28:04.287Z,7.36
2018-12-31T16:30:30.443Z,7.30
2018-12-31T16:32:56.602Z,7.26
2018-12-31T16:35:22.784Z,7.32
2018-12-31T16:37:48.937Z,7.24
2018-12-31T16:40:15.100Z,7.21
2018-12-31T16:42:41.291Z,7.25
2018-12-31T16:45:07.621Z,7.23
2018-12-31T16:47:33.757Z,7.18
2018-12-31T16:50:00.167Z,6.98
2018-12-31T16:52:26.310Z,6.94
2018-12-31T16:54:52.465Z,6.86
2018-12-31T16:57:18.656Z,6.64
2018-12-31T16:59:44.907Z,6.51
2018-12-31T17:02:11.069Z,6.41
2018-12-31T17:04:39.171Z,6.34
2018-12-31T17:07:05.323Z,6.32
2018-12-31T17:09:31.592Z,6.31
2018-12-31T17:11:57.809Z,6.27
2018-12-31T17:14:24.084Z,6.17
2018-12-31T17:16:50.248Z,6.12
2018-12-31T17:19:16.431Z,6.02
2018-12-31T17:21:43.103Z,5.93
2018-12-31T17:24:09.267Z,5.71
2018-12-31T17:26:35.451Z,5.51
2018-12-31T17:29:01.600Z,5.34
2018-12-31T17:31:27.758Z,5.47
2018-12-31T17:33:53.967Z,5.59
2018-12-31T17:36:22.140Z,5.69
2018-12-31T17:38:49.062Z,5.72
2018-12-31T17:41:36.248Z,5.72
2018-12-31T17:44:02.408Z,5.68
2018-12-31T17:49:16.348Z,5.72
2018-12-31T17:51:42.511Z,5.69
2018-12-31T17:54:08.673Z,5.73
2018-12-31T17:56:34.879Z,5.91
2018-12-31T17:59:02.949Z,6.03
2018-12-31T18:01:29.103Z,6.11
2018-12-31T18:03:55.296Z,6.16
2018-12-31T18:06:21.455Z,6.16
2018-12-31T18:08:47.620Z,6.05
2018-12-31T18:11:13.921Z,6.00
2018-12-31T18:13:41.978Z,5.95
2018-12-31T18:16:08.138Z,5.98
2018-12-31T18:18:34.325Z,5.96
2018-12-31T18:21:00.492Z,6.02
2018-12-31T18:23:26.653Z,6.08
2018-12-31T18:25:52.850Z,6.17
2018-12-31T18:28:19.106Z,6.31
2018-12-31T18:30:45.347Z,6.37
2018-12-31T18:33:11.682Z,6.41
2018-12-31T18:35:37.839Z,6.43
2018-12-31T18:38:03.997Z,6.40
2018-12-31T18:40:30.286Z,6.22
2018-12-31T18:42:56.448Z,6.22
2018-12-31T18:45:22.807Z,6.26
2018-12-31T18:47:49.039Z,6.39
2018-12-31T18:50:15.292Z,6.47
2018-12-31T18:52:41.454Z,6.59
2018-12-31T18:55:07.655Z,6.68
2018-12-31T18:57:33.812Z,6.68
2018-12-31T19:00:01.868Z,6.75
2018-12-31T19:02:28.074Z,6.76
2018-12-31T19:04:54.237Z,6.65
2018-12-31T19:07:20.397Z,6.63
2018-12-31T19:09:46.586Z,6.73
2018-12-31T19:12:12.852Z,6.74
2018-12-31T19:14:39.007Z,6.80
2018-12-31T19:17:05.196Z,6.71
2018-12-31T19:19:31.346Z,6.68
2018-12-31T19:21:57.512Z,6.68
2018-12-31T19:24:23.688Z,6.61
2018-12-31T19:26:49.838Z,6.57
2018-12-31T19:29:15.988Z,6.51
2018-12-31T19:31:44.293Z,6.57
2018-12-31T19:34:12.139Z,6.60
2018-12-31T19:36:38.294Z,6.54
2018-12-31T19:39:45.918Z,6.54
2018-12-31T19:42:12.097Z,6.55
2018-12-31T19:44:38.257Z,6.51
2018-12-31T19:47:04.557Z,6.47
2018-12-31T19:49:30.723Z,6.46
2018-12-31T19:51:56.883Z,6.54
2018-12-31T19:54:25.064Z,6.61
2018-12-31T19:56:51.225Z,6.62
2018-12-31T19:59:17.375Z,6.57
2018-12-31T20:01:43.575Z,6.50
2018-12-31T20:04:09.741Z,6.50
2018-12-31T20:06:35.914Z,6.49
2018-12-31T20:09:57.762Z,6.43
2018-12-31T20:12:13.473Z,6.26
2018-12-31T20:14:42.443Z,6.10
2018-12-31T20:17:08.767Z,5.99
2018-12-31T20:19:34.930Z,5.85
2018-12-31T20:24:53.740Z,5.54
2018-12-31T20:27:19.901Z,5.39
2018-12-31T20:29:46.072Z,5.31
2018-12-31T20:32:12.268Z,5.34
2018-12-31T20:34:38.441Z,5.37
2018-12-31T20:37:04.596Z,5.51
2018-12-31T20:39:30.890Z,5.64
2018-12-31T20:41:57.054Z,5.87
2018-12-31T20:44:23.216Z,5.99
2018-12-31T20:46:49.414Z,6.02
2018-12-31T20:49:15.582Z,5.86
2018-12-31T20:51:41.757Z,5.76
2018-12-31T20:54:07.977Z,5.66
2018-12-31T20:56:34.142Z,5.62
2018-12-31T20:59:00.401Z,5.59
2018-12-31T21:01:26.797Z,5.58
2018-12-31T21:03:52.933Z,5.57
2018-12-31T21:06:19.088Z,5.60
2018-12-31T21:08:45.272Z,5.57
2018-12-31T21:11:11.440Z,5.45
2018-12-31T21:13:37.595Z,5.16
2018-12-31T21:16:05.487Z,5.05
2018-12-31T21:18:31.843Z,5.06
2018-12-31T21:20:58.022Z,5.06
2018-12-31T21:23:24.293Z,4.98
2018-12-31T21:25:50.452Z,4.76
2018-12-31T21:28:16.613Z,4.71
2018-12-31T21:30:42.814Z,4.68
2018-12-31T21:33:10.867Z,4.69
2018-12-31T21:35:37.027Z,4.70
2018-12-31T21:38:03.326Z,4.73
2018-12-31T21:40:29.490Z,4.73
2018-12-31T21:42:55.654Z,4.68
2018-12-31T21:45:21.969Z,4.57
2018-12-31T21:47:48.229Z,4.54
2018-12-31T21:50:27.844Z,4.61
2018-12-31T21:52:54.014Z,4.54
2018-12-31T21:55:20.165Z,4.48
2018-12-31T21:57:46.362Z,4.39
2018-12-31T22:00:12.512Z,4.43
2018-12-31T22:02:40.575Z,4.42
2018-12-31T22:05:06.761Z,4.43
2018-12-31T22:07:32.914Z,4.38
2018-12-31T22:09:59.077Z,4.40
2018-12-31T22:12:25.276Z,4.35
2018-12-31T22:14:51.428Z,4.38
2018-12-31T22:17:17.583Z,4.23
2018-12-31T22:19:43.781Z,4.26
2018-12-31T22:22:09.944Z,4.27
2018-12-31T22:24:36.199Z,4.30
2018-12-31T22:27:02.488Z,4.30
2018-12-31T22:29:28.649Z,4.26
2018-12-31T22:31:54.809Z,4.33
2018-12-31T22:34:21.202Z,4.40
2018-12-31T22:36:47.351Z,4.50
2018-12-31T22:39:13.505Z,4.53
2018-12-31T22:41:39.698Z,4.47
2018-12-31T22:44:05.855Z,4.49
2018-12-31T22:46:32.003Z,4.49
2018-12-31T22:48:58.398Z,4.49
2018-12-31T22:51:37.910Z,4.49
2018-12-31T22:54:04.098Z,4.50
2018-12-31T22:56:30.254Z,4.53
2018-12-31T22:58:56.428Z,4.60
2018-12-31T23:01:22.733Z,4.63
2018-12-31T23:03:48.888Z,4.60
2018-12-31T23:06:15.041Z,4.43
2018-12-31T23:08:41.255Z,4.41
2018-12-31T23:11:07.413Z,4.43
2018-12-31T23:13:33.567Z,4.24
2018-12-31T23:15:59.757Z,4.29
2018-12-31T23:18:26.109Z,4.01
2018-12-31T23:20:52.276Z,4.12
2018-12-31T23:23:18.597Z,4.04
2018-12-31T23:25:44.756Z,3.88
2018-12-31T23:28:11.800Z,3.85
2018-12-31T23:30:37.999Z,3.96
2018-12-31T23:33:04.279Z,3.77
2018-12-31T23:35:31.313Z,3.81
2018-12-31T23:37:58.632Z,4.03
2018-12-31T23:40:24.790Z,4.26
2018-12-31T23:42:50.949Z,4.52
2018-12-31T23:45:17.136Z,4.57
2018-12-31T23:47:43.293Z,4.56
2018-12-31T23:50:11.344Z,4.41
2018-12-31T23:52:37.547Z,4.55
2018-12-31T23:58:17.533Z,4.30
